sensor_id;sensor_type;location;lat;lon;timestamp;P1;durP1;ratioP1;P2;durP2;ratioP2
29688;SDS011;16600;47.444;8.334;2023-04-06T00:02:01;8.15;;;7.28;;
29688;SDS011;16600;47.444;8.334;2023-04-06T00:06:52;10.75;;;8.45;;
29688;SDS011;16600;47.444;8.334;2023-04-06T00:09:18;10.52;;;8.55;;
29688;SDS011;16600;47.444;8.334;2023-04-06T00:11:44;10.30;;;8.80;;
29688;SDS011;16600;47.444;8.334;2023-04-06T00:14:11;15.50;;;8.90;;
29688;SDS011;16600;47.444;8.334;2023-04-06T00:16:37;14.25;;;10.32;;
29688;SDS011;16600;47.444;8.334;2023-04-06T00:19:03;12.15;;;10.00;;
29688;SDS011;16600;47.444;8.334;2023-04-06T00:21:29;11.85;;;9.20;;
29688;SDS011;16600;47.444;8.334;2023-04-06T00:23:56;16.40;;;10.98;;
29688;SDS011;16600;47.444;8.334;2023-04-06T00:26:23;13.68;;;9.90;;
29688;SDS011;16600;47.444;8.334;2023-04-06T00:28:49;11.10;;;9.57;;
29688;SDS011;16600;47.444;8.334;2023-04-06T00:31:17;16.75;;;10.05;;
29688;SDS011;16600;47.444;8.334;2023-04-06T00:33:43;10.43;;;9.40;;
29688;SDS011;16600;47.444;8.334;2023-04-06T00:36:10;12.60;;;9.45;;
29688;SDS011;16600;47.444;8.334;2023-04-06T00:38:36;12.23;;;10.57;;
29688;SDS011;16600;47.444;8.334;2023-04-06T00:43:27;12.40;;;10.13;;
29688;SDS011;16600;47.444;8.334;2023-04-06T00:45:53;14.07;;;10.75;;
29688;SDS011;16600;47.444;8.334;2023-04-06T00:48:21;13.40;;;11.13;;
29688;SDS011;16600;47.444;8.334;2023-04-06T00:50:47;13.93;;;11.02;;
29688;SDS011;16600;47.444;8.334;2023-04-06T00:53:13;11.90;;;10.52;;
29688;SDS011;16600;47.444;8.334;2023-04-06T00:55:40;16.65;;;12.07;;
29688;SDS011;16600;47.444;8.334;2023-04-06T00:58:10;12.30;;;11.07;;
29688;SDS011;16600;47.444;8.334;2023-04-06T01:00:45;17.02;;;11.52;;
29688;SDS011;16600;47.444;8.334;2023-04-06T01:03:16;20.23;;;10.82;;
29688;SDS011;16600;47.444;8.334;2023-04-06T01:05:42;12.95;;;10.90;;
29688;SDS011;16600;47.444;8.334;2023-04-06T01:08:23;14.45;;;11.18;;
29688;SDS011;16600;47.444;8.334;2023-04-06T01:11:00;13.52;;;11.93;;
29688;SDS011;16600;47.444;8.334;2023-04-06T01:13:28;20.48;;;11.48;;
29688;SDS011;16600;47.444;8.334;2023-04-06T01:15:59;13.65;;;10.05;;
29688;SDS011;16600;47.444;8.334;2023-04-06T01:18:43;13.50;;;10.80;;
29688;SDS011;16600;47.444;8.334;2023-04-06T01:21:16;13.05;;;11.38;;
29688;SDS011;16600;47.444;8.334;2023-04-06T01:24:10;15.23;;;11.40;;
29688;SDS011;16600;47.444;8.334;2023-04-06T01:27:05;13.52;;;11.05;;
29688;SDS011;16600;47.444;8.334;2023-04-06T01:29:45;11.43;;;10.02;;
29688;SDS011;16600;47.444;8.334;2023-04-06T01:32:17;17.75;;;11.43;;
29688;SDS011;16600;47.444;8.334;2023-04-06T01:34:48;11.27;;;10.15;;
29688;SDS011;16600;47.444;8.334;2023-04-06T01:37:14;11.93;;;10.48;;
29688;SDS011;16600;47.444;8.334;2023-04-06T01:39:41;13.00;;;11.13;;
29688;SDS011;16600;47.444;8.334;2023-04-06T01:42:10;13.80;;;10.98;;
29688;SDS011;16600;47.444;8.334;2023-04-06T01:44:38;32.47;;;12.60;;
29688;SDS011;16600;47.444;8.334;2023-04-06T01:47:09;13.65;;;12.23;;
29688;SDS011;16600;47.444;8.334;2023-04-06T01:49:36;14.50;;;11.75;;
29688;SDS011;16600;47.444;8.334;2023-04-06T01:52:02;12.48;;;11.27;;
29688;SDS011;16600;47.444;8.334;2023-04-06T01:54:29;13.85;;;11.23;;
29688;SDS011;16600;47.444;8.334;2023-04-06T01:57:07;12.93;;;11.55;;
29688;SDS011;16600;47.444;8.334;2023-04-06T01:59:40;16.63;;;12.38;;
29688;SDS011;16600;47.444;8.334;2023-04-06T02:02:14;13.50;;;12.10;;
29688;SDS011;16600;47.444;8.334;2023-04-06T02:04:53;14.80;;;11.25;;
29688;SDS011;16600;47.444;8.334;2023-04-06T02:07:19;18.13;;;13.43;;
29688;SDS011;16600;47.444;8.334;2023-04-06T02:09:46;16.10;;;12.30;;
29688;SDS011;16600;47.444;8.334;2023-04-06T02:12:20;13.35;;;11.38;;
29688;SDS011;16600;47.444;8.334;2023-04-06T02:14:47;15.18;;;11.98;;
29688;SDS011;16600;47.444;8.334;2023-04-06T02:17:13;13.88;;;12.48;;
29688;SDS011;16600;47.444;8.334;2023-04-06T02:22:05;15.23;;;11.38;;
29688;SDS011;16600;47.444;8.334;2023-04-06T02:24:32;15.57;;;11.60;;
29688;SDS011;16600;47.444;8.334;2023-04-06T02:26:58;17.73;;;11.85;;
29688;SDS011;16600;47.444;8.334;2023-04-06T02:31:50;14.33;;;12.07;;
29688;SDS011;16600;47.444;8.334;2023-04-06T02:34:16;15.40;;;12.63;;
29688;SDS011;16600;47.444;8.334;2023-04-06T02:36:49;15.02;;;13.15;;
29688;SDS011;16600;47.444;8.334;2023-04-06T02:41:41;22.40;;;13.77;;
29688;SDS011;16600;47.444;8.334;2023-04-06T02:44:11;16.42;;;13.82;;
29688;SDS011;16600;47.444;8.334;2023-04-06T02:46:41;15.15;;;13.55;;
29688;SDS011;16600;47.444;8.334;2023-04-06T02:49:07;16.25;;;13.50;;
29688;SDS011;16600;47.444;8.334;2023-04-06T02:51:34;15.15;;;13.65;;
29688;SDS011;16600;47.444;8.334;2023-04-06T02:54:20;21.67;;;13.25;;
29688;SDS011;16600;47.444;8.334;2023-04-06T02:56:50;15.82;;;13.52;;
29688;SDS011;16600;47.444;8.334;2023-04-06T02:59:16;14.57;;;13.02;;
29688;SDS011;16600;47.444;8.334;2023-04-06T03:01:48;19.25;;;12.63;;
29688;SDS011;16600;47.444;8.334;2023-04-06T03:06:39;15.45;;;12.63;;
29688;SDS011;16600;47.444;8.334;2023-04-06T03:09:15;15.85;;;12.88;;
29688;SDS011;16600;47.444;8.334;2023-04-06T03:11:42;15.60;;;12.70;;
29688;SDS011;16600;47.444;8.334;2023-04-06T03:16:33;12.43;;;11.13;;
29688;SDS011;16600;47.444;8.334;2023-04-06T03:19:01;14.10;;;12.52;;
29688;SDS011;16600;47.444;8.334;2023-04-06T03:21:29;15.38;;;12.82;;
29688;SDS011;16600;47.444;8.334;2023-04-06T03:26:20;15.85;;;12.35;;
29688;SDS011;16600;47.444;8.334;2023-04-06T03:28:46;13.18;;;11.57;;
29688;SDS011;16600;47.444;8.334;2023-04-06T03:31:13;15.23;;;12.55;;
29688;SDS011;16600;47.444;8.334;2023-04-06T03:33:41;15.90;;;12.73;;
29688;SDS011;16600;47.444;8.334;2023-04-06T03:36:11;16.73;;;12.85;;
29688;SDS011;16600;47.444;8.334;2023-04-06T03:38:40;15.00;;;13.27;;
29688;SDS011;16600;47.444;8.334;2023-04-06T03:41:10;21.23;;;13.98;;
29688;SDS011;16600;47.444;8.334;2023-04-06T03:43:37;16.00;;;12.93;;
29688;SDS011;16600;47.444;8.334;2023-04-06T03:48:28;17.40;;;12.43;;
29688;SDS011;16600;47.444;8.334;2023-04-06T03:53:19;14.30;;;12.70;;
29688;SDS011;16600;47.444;8.334;2023-04-06T03:58:10;17.33;;;12.65;;
29688;SDS011;16600;47.444;8.334;2023-04-06T04:03:00;14.33;;;11.70;;
29688;SDS011;16600;47.444;8.334;2023-04-06T04:05:27;15.80;;;13.45;;
29688;SDS011;16600;47.444;8.334;2023-04-06T04:07:53;15.35;;;13.02;;
29688;SDS011;16600;47.444;8.334;2023-04-06T04:10:22;20.88;;;13.40;;
29688;SDS011;16600;47.444;8.334;2023-04-06T04:15:13;14.02;;;12.32;;
29688;SDS011;16600;47.444;8.334;2023-04-06T04:20:04;16.60;;;12.02;;
29688;SDS011;16600;47.444;8.334;2023-04-06T04:24:56;13.80;;;12.32;;
29688;SDS011;16600;47.444;8.334;2023-04-06T04:29:48;17.05;;;13.07;;
29688;SDS011;16600;47.444;8.334;2023-04-06T04:32:15;13.35;;;11.15;;
29688;SDS011;16600;47.444;8.334;2023-04-06T04:34:42;12.77;;;11.10;;
29688;SDS011;16600;47.444;8.334;2023-04-06T04:37:15;14.15;;;11.95;;
29688;SDS011;16600;47.444;8.334;2023-04-06T04:39:49;22.60;;;12.55;;
29688;SDS011;16600;47.444;8.334;2023-04-06T04:44:46;16.52;;;12.57;;
29688;SDS011;16600;47.444;8.334;2023-04-06T04:47:13;18.45;;;12.27;;
29688;SDS011;16600;47.444;8.334;2023-04-06T04:49:43;12.43;;;10.90;;
29688;SDS011;16600;47.444;8.334;2023-04-06T04:52:11;20.95;;;11.85;;
29688;SDS011;16600;47.444;8.334;2023-04-06T04:54:56;14.20;;;11.65;;
29688;SDS011;16600;47.444;8.334;2023-04-06T04:57:26;13.80;;;11.52;;
29688;SDS011;16600;47.444;8.334;2023-04-06T04:59:53;14.20;;;12.70;;
29688;SDS011;16600;47.444;8.334;2023-04-06T05:02:22;18.05;;;11.75;;
29688;SDS011;16600;47.444;8.334;2023-04-06T05:05:07;15.13;;;11.77;;
29688;SDS011;16600;47.444;8.334;2023-04-06T05:07:35;16.77;;;12.52;;
29688;SDS011;16600;47.444;8.334;2023-04-06T05:10:01;13.10;;;11.55;;
29688;SDS011;16600;47.444;8.334;2023-04-06T05:12:33;14.25;;;11.32;;
29688;SDS011;16600;47.444;8.334;2023-04-06T05:15:05;16.05;;;11.13;;
29688;SDS011;16600;47.444;8.334;2023-04-06T05:17:32;27.65;;;12.30;;
29688;SDS011;16600;47.444;8.334;2023-04-06T05:19:59;16.08;;;10.23;;
29688;SDS011;16600;47.444;8.334;2023-04-06T05:22:27;14.55;;;10.23;;
29688;SDS011;16600;47.444;8.334;2023-04-06T05:25:04;10.68;;;9.57;;
29688;SDS011;16600;47.444;8.334;2023-04-06T05:27:31;14.05;;;10.40;;
29688;SDS011;16600;47.444;8.334;2023-04-06T05:30:00;13.70;;;9.82;;
29688;SDS011;16600;47.444;8.334;2023-04-06T05:32:29;13.52;;;9.63;;
29688;SDS011;16600;47.444;8.334;2023-04-06T05:34:55;9.57;;;8.57;;
29688;SDS011;16600;47.444;8.334;2023-04-06T05:37:22;10.32;;;8.80;;
29688;SDS011;16600;47.444;8.334;2023-04-06T05:39:54;14.27;;;8.82;;
29688;SDS011;16600;47.444;8.334;2023-04-06T05:42:22;9.48;;;7.95;;
29688;SDS011;16600;47.444;8.334;2023-04-06T05:44:55;10.40;;;8.10;;
29688;SDS011;16600;47.444;8.334;2023-04-06T05:47:21;10.52;;;7.63;;
29688;SDS011;16600;47.444;8.334;2023-04-06T05:49:57;18.67;;;9.13;;
29688;SDS011;16600;47.444;8.334;2023-04-06T05:52:34;9.82;;;8.30;;
29688;SDS011;16600;47.444;8.334;2023-04-06T05:55:01;14.68;;;8.20;;
29688;SDS011;16600;47.444;8.334;2023-04-06T05:57:32;11.38;;;8.80;;
29688;SDS011;16600;47.444;8.334;2023-04-06T05:59:59;11.15;;;8.57;;
29688;SDS011;16600;47.444;8.334;2023-04-06T06:02:40;12.20;;;7.95;;
29688;SDS011;16600;47.444;8.334;2023-04-06T06:05:14;11.50;;;7.57;;
29688;SDS011;16600;47.444;8.334;2023-04-06T06:07:41;10.52;;;7.93;;
29688;SDS011;16600;47.444;8.334;2023-04-06T06:10:07;10.57;;;8.00;;
29688;SDS011;16600;47.444;8.334;2023-04-06T06:12:36;10.95;;;7.50;;
29688;SDS011;16600;47.444;8.334;2023-04-06T06:15:02;11.32;;;8.48;;
29688;SDS011;16600;47.444;8.334;2023-04-06T06:17:31;21.60;;;7.85;;
29688;SDS011;16600;47.444;8.334;2023-04-06T06:20:01;13.70;;;8.73;;
29688;SDS011;16600;47.444;8.334;2023-04-06T06:22:28;12.02;;;7.68;;
29688;SDS011;16600;47.444;8.334;2023-04-06T06:24:54;8.75;;;7.88;;
29688;SDS011;16600;47.444;8.334;2023-04-06T06:27:23;9.95;;;7.20;;
29688;SDS011;16600;47.444;8.334;2023-04-06T06:29:49;9.73;;;8.25;;
29688;SDS011;16600;47.444;8.334;2023-04-06T06:32:16;8.85;;;7.93;;
29688;SDS011;16600;47.444;8.334;2023-04-06T06:34:44;8.65;;;6.82;;
29688;SDS011;16600;47.444;8.334;2023-04-06T06:37:10;14.88;;;7.88;;
29688;SDS011;16600;47.444;8.334;2023-04-06T06:39:37;10.55;;;7.78;;
29688;SDS011;16600;47.444;8.334;2023-04-06T06:42:04;12.27;;;7.93;;
29688;SDS011;16600;47.444;8.334;2023-04-06T06:44:49;8.40;;;7.53;;
29688;SDS011;16600;47.444;8.334;2023-04-06T06:47:18;11.43;;;7.55;;
29688;SDS011;16600;47.444;8.334;2023-04-06T06:49:44;8.90;;;8.00;;
29688;SDS011;16600;47.444;8.334;2023-04-06T06:52:10;10.00;;;7.82;;
29688;SDS011;16600;47.444;8.334;2023-04-06T06:54:36;8.38;;;7.38;;
29688;SDS011;16600;47.444;8.334;2023-04-06T06:57:03;19.25;;;7.85;;
29688;SDS011;16600;47.444;8.334;2023-04-06T06:59:28;12.55;;;7.63;;
29688;SDS011;16600;47.444;8.334;2023-04-06T07:01:54;11.95;;;7.93;;
29688;SDS011;16600;47.444;8.334;2023-04-06T07:04:20;11.45;;;8.45;;
29688;SDS011;16600;47.444;8.334;2023-04-06T07:06:46;9.65;;;7.78;;
29688;SDS011;16600;47.444;8.334;2023-04-06T07:09:11;11.75;;;8.23;;
29688;SDS011;16600;47.444;8.334;2023-04-06T07:11:37;11.50;;;7.70;;
29688;SDS011;16600;47.444;8.334;2023-04-06T07:14:04;13.80;;;7.68;;
29688;SDS011;16600;47.444;8.334;2023-04-06T07:16:30;12.20;;;8.73;;
29688;SDS011;16600;47.444;8.334;2023-04-06T07:18:55;14.70;;;8.52;;
29688;SDS011;16600;47.444;8.334;2023-04-06T07:21:21;16.38;;;7.88;;
29688;SDS011;16600;47.444;8.334;2023-04-06T07:23:47;19.00;;;8.02;;
29688;SDS011;16600;47.444;8.334;2023-04-06T07:26:16;13.63;;;7.72;;
29688;SDS011;16600;47.444;8.334;2023-04-06T07:28:42;17.75;;;7.85;;
29688;SDS011;16600;47.444;8.334;2023-04-06T07:31:09;10.23;;;8.02;;
29688;SDS011;16600;47.444;8.334;2023-04-06T07:33:35;7.75;;;7.05;;
29688;SDS011;16600;47.444;8.334;2023-04-06T07:36:01;10.98;;;8.13;;
29688;SDS011;16600;47.444;8.334;2023-04-06T07:38:27;12.73;;;7.75;;
29688;SDS011;16600;47.444;8.334;2023-04-06T07:40:52;21.25;;;8.38;;
29688;SDS011;16600;47.444;8.334;2023-04-06T07:43:18;12.38;;;8.73;;
29688;SDS011;16600;47.444;8.334;2023-04-06T07:45:43;8.35;;;7.20;;
29688;SDS011;16600;47.444;8.334;2023-04-06T07:48:09;13.48;;;7.63;;
29688;SDS011;16600;47.444;8.334;2023-04-06T07:50:36;14.02;;;7.60;;
29688;SDS011;16600;47.444;8.334;2023-04-06T07:53:02;10.05;;;8.93;;
29688;SDS011;16600;47.444;8.334;2023-04-06T07:55:29;12.80;;;7.65;;
29688;SDS011;16600;47.444;8.334;2023-04-06T07:57:54;9.95;;;7.72;;
29688;SDS011;16600;47.444;8.334;2023-04-06T08:00:20;8.18;;;7.30;;
29688;SDS011;16600;47.444;8.334;2023-04-06T08:02:46;9.65;;;7.03;;
29688;SDS011;16600;47.444;8.334;2023-04-06T08:05:11;9.35;;;7.90;;
29688;SDS011;16600;47.444;8.334;2023-04-06T08:07:37;8.75;;;7.28;;
29688;SDS011;16600;47.444;8.334;2023-04-06T08:10:03;7.88;;;7.10;;
29688;SDS011;16600;47.444;8.334;2023-04-06T08:12:29;10.52;;;7.70;;
29688;SDS011;16600;47.444;8.334;2023-04-06T08:14:55;10.43;;;7.80;;
29688;SDS011;16600;47.444;8.334;2023-04-06T08:17:22;6.78;;;6.15;;
29688;SDS011;16600;47.444;8.334;2023-04-06T08:19:47;13.57;;;7.57;;
29688;SDS011;16600;47.444;8.334;2023-04-06T08:22:13;11.30;;;7.85;;
29688;SDS011;16600;47.444;8.334;2023-04-06T08:24:38;10.27;;;7.30;;
29688;SDS011;16600;47.444;8.334;2023-04-06T08:27:04;8.73;;;7.63;;
29688;SDS011;16600;47.444;8.334;2023-04-06T08:29:30;10.38;;;7.18;;
29688;SDS011;16600;47.444;8.334;2023-04-06T08:31:55;8.80;;;7.88;;
29688;SDS011;16600;47.444;8.334;2023-04-06T08:34:21;15.13;;;7.22;;
29688;SDS011;16600;47.444;8.334;2023-04-06T08:36:48;9.13;;;7.93;;
29688;SDS011;16600;47.444;8.334;2023-04-06T08:39:13;8.55;;;7.38;;
29688;SDS011;16600;47.444;8.334;2023-04-06T08:41:41;7.50;;;6.75;;
29688;SDS011;16600;47.444;8.334;2023-04-06T08:44:07;7.20;;;6.50;;
29688;SDS011;16600;47.444;8.334;2023-04-06T08:46:32;7.45;;;6.75;;
29688;SDS011;16600;47.444;8.334;2023-04-06T08:48:59;11.10;;;6.68;;
29688;SDS011;16600;47.444;8.334;2023-04-06T08:51:25;8.40;;;7.03;;
29688;SDS011;16600;47.444;8.334;2023-04-06T08:53:55;10.15;;;6.57;;
29688;SDS011;16600;47.444;8.334;2023-04-06T08:56:24;9.98;;;6.68;;
29688;SDS011;16600;47.444;8.334;2023-04-06T08:58:51;7.53;;;6.70;;
29688;SDS011;16600;47.444;8.334;2023-04-06T09:01:17;7.88;;;7.07;;
29688;SDS011;16600;47.444;8.334;2023-04-06T09:03:43;10.93;;;7.15;;
29688;SDS011;16600;47.444;8.334;2023-04-06T09:06:10;13.55;;;6.88;;
29688;SDS011;16600;47.444;8.334;2023-04-06T09:08:38;13.23;;;6.82;;
29688;SDS011;16600;47.444;8.334;2023-04-06T09:11:04;7.60;;;6.75;;
29688;SDS011;16600;47.444;8.334;2023-04-06T09:13:30;9.90;;;7.55;;
29688;SDS011;16600;47.444;8.334;2023-04-06T09:16:00;10.63;;;7.43;;
29688;SDS011;16600;47.444;8.334;2023-04-06T09:18:30;12.35;;;7.78;;
29688;SDS011;16600;47.444;8.334;2023-04-06T09:20:59;12.40;;;8.38;;
29688;SDS011;16600;47.444;8.334;2023-04-06T09:23:26;10.07;;;7.25;;
29688;SDS011;16600;47.444;8.334;2023-04-06T09:28:17;9.73;;;7.78;;
29688;SDS011;16600;47.444;8.334;2023-04-06T09:33:08;8.80;;;6.97;;
29688;SDS011;16600;47.444;8.334;2023-04-06T09:35:35;9.77;;;6.30;;
29688;SDS011;16600;47.444;8.334;2023-04-06T09:40:27;9.95;;;7.63;;
29688;SDS011;16600;47.444;8.334;2023-04-06T09:42:54;7.30;;;6.63;;
29688;SDS011;16600;47.444;8.334;2023-04-06T09:45:22;9.05;;;6.47;;
29688;SDS011;16600;47.444;8.334;2023-04-06T09:47:48;10.18;;;6.03;;
29688;SDS011;16600;47.444;8.334;2023-04-06T09:50:16;6.75;;;6.05;;
29688;SDS011;16600;47.444;8.334;2023-04-06T09:52:47;10.50;;;7.35;;
29688;SDS011;16600;47.444;8.334;2023-04-06T09:55:17;11.30;;;6.95;;
29688;SDS011;16600;47.444;8.334;2023-04-06T10:05:52;13.60;;;7.25;;
29688;SDS011;16600;47.444;8.334;2023-04-06T10:08:19;9.27;;;7.38;;
29688;SDS011;16600;47.444;8.334;2023-04-06T10:10:46;11.05;;;7.70;;
29688;SDS011;16600;47.444;8.334;2023-04-06T10:15:37;11.38;;;7.68;;
29688;SDS011;16600;47.444;8.334;2023-04-06T10:20:31;10.43;;;6.88;;
29688;SDS011;16600;47.444;8.334;2023-04-06T10:23:08;7.38;;;6.68;;
29688;SDS011;16600;47.444;8.334;2023-04-06T10:25:34;14.77;;;7.50;;
29688;SDS011;16600;47.444;8.334;2023-04-06T10:30:26;7.63;;;6.77;;
29688;SDS011;16600;47.444;8.334;2023-04-06T10:32:53;7.90;;;7.15;;
29688;SDS011;16600;47.444;8.334;2023-04-06T10:37:59;8.95;;;7.22;;
29688;SDS011;16600;47.444;8.334;2023-04-06T10:40:27;12.68;;;7.78;;
29688;SDS011;16600;47.444;8.334;2023-04-06T10:42:54;10.23;;;7.15;;
29688;SDS011;16600;47.444;8.334;2023-04-06T10:45:23;8.25;;;6.63;;
29688;SDS011;16600;47.444;8.334;2023-04-06T10:47:49;8.48;;;7.57;;
29688;SDS011;16600;47.444;8.334;2023-04-06T10:52:41;7.73;;;6.93;;
29688;SDS011;16600;47.444;8.334;2023-04-06T10:57:32;13.32;;;7.60;;
29688;SDS011;16600;47.444;8.334;2023-04-06T11:02:23;13.77;;;7.57;;
29688;SDS011;16600;47.444;8.334;2023-04-06T11:07:22;7.43;;;6.43;;
29688;SDS011;16600;47.444;8.334;2023-04-06T11:09:49;9.60;;;6.63;;
29688;SDS011;16600;47.444;8.334;2023-04-06T11:12:25;9.13;;;7.15;;
29688;SDS011;16600;47.444;8.334;2023-04-06T11:14:58;10.57;;;7.07;;
29688;SDS011;16600;47.444;8.334;2023-04-06T11:17:31;8.52;;;6.78;;
29688;SDS011;16600;47.444;8.334;2023-04-06T11:19:58;8.30;;;6.78;;
29688;SDS011;16600;47.444;8.334;2023-04-06T11:24:49;6.95;;;6.25;;
29688;SDS011;16600;47.444;8.334;2023-04-06T11:29:43;9.40;;;6.65;;
29688;SDS011;16600;47.444;8.334;2023-04-06T11:32:11;10.05;;;6.95;;
29688;SDS011;16600;47.444;8.334;2023-04-06T11:37:06;11.77;;;6.20;;
29688;SDS011;16600;47.444;8.334;2023-04-06T11:39:37;8.50;;;6.63;;
29688;SDS011;16600;47.444;8.334;2023-04-06T11:42:03;8.68;;;6.60;;
29688;SDS011;16600;47.444;8.334;2023-04-06T11:46:54;8.23;;;6.15;;
29688;SDS011;16600;47.444;8.334;2023-04-06T11:49:21;6.20;;;5.47;;
29688;SDS011;16600;47.444;8.334;2023-04-06T11:54:12;6.57;;;5.72;;
29688;SDS011;16600;47.444;8.334;2023-04-06T11:59:03;6.25;;;5.65;;
29688;SDS011;16600;47.444;8.334;2023-04-06T16:03:00;11.33;;;5.57;;
29688;SDS011;16600;47.444;8.334;2023-04-06T16:07:51;13.07;;;5.35;;
29688;SDS011;16600;47.444;8.334;2023-04-06T16:12:42;11.57;;;5.85;;
29688;SDS011;16600;47.444;8.334;2023-04-06T16:17:34;8.02;;;5.57;;
29688;SDS011;16600;47.444;8.334;2023-04-06T16:22:25;9.85;;;6.05;;
29688;SDS011;16600;47.444;8.334;2023-04-06T16:24:53;7.05;;;5.82;;
29688;SDS011;16600;47.444;8.334;2023-04-06T16:29:44;10.60;;;7.40;;
29688;SDS011;16600;47.444;8.334;2023-04-06T16:34:36;8.93;;;7.07;;
29688;SDS011;16600;47.444;8.334;2023-04-06T16:39:27;9.73;;;7.07;;
29688;SDS011;16600;47.444;8.334;2023-04-06T16:44:18;13.55;;;8.40;;
29688;SDS011;16600;47.444;8.334;2023-04-06T16:49:10;12.25;;;7.72;;
29688;SDS011;16600;47.444;8.334;2023-04-06T16:54:02;11.85;;;7.97;;
29688;SDS011;16600;47.444;8.334;2023-04-06T16:56:28;13.35;;;8.38;;
29688;SDS011;16600;47.444;8.334;2023-04-06T16:58:55;14.70;;;8.27;;
29688;SDS011;16600;47.444;8.334;2023-04-06T17:03:46;16.45;;;7.60;;
29688;SDS011;16600;47.444;8.334;2023-04-06T17:06:12;22.45;;;13.45;;
29688;SDS011;16600;47.444;8.334;2023-04-06T17:08:39;21.42;;;12.57;;
29688;SDS011;16600;47.444;8.334;2023-04-06T17:11:05;14.70;;;9.00;;
29688;SDS011;16600;47.444;8.334;2023-04-06T17:15:57;12.20;;;7.60;;
29688;SDS011;16600;47.444;8.334;2023-04-06T17:18:29;12.60;;;7.53;;
29688;SDS011;16600;47.444;8.334;2023-04-06T17:20:58;10.93;;;7.53;;
29688;SDS011;16600;47.444;8.334;2023-04-06T17:23:24;11.77;;;8.23;;
29688;SDS011;16600;47.444;8.334;2023-04-06T17:25:50;13.75;;;8.10;;
29688;SDS011;16600;47.444;8.334;2023-04-06T17:28:17;10.32;;;6.93;;
29688;SDS011;16600;47.444;8.334;2023-04-06T17:30:43;8.55;;;6.53;;
29688;SDS011;16600;47.444;8.334;2023-04-06T17:33:09;9.75;;;6.05;;
29688;SDS011;16600;47.444;8.334;2023-04-06T17:35:37;8.63;;;5.85;;
29688;SDS011;16600;47.444;8.334;2023-04-06T17:40:28;12.23;;;5.53;;
29688;SDS011;16600;47.444;8.334;2023-04-06T17:42:54;7.45;;;5.63;;
29688;SDS011;16600;47.444;8.334;2023-04-06T17:45:21;7.38;;;5.47;;
29688;SDS011;16600;47.444;8.334;2023-04-06T17:47:47;10.77;;;6.07;;
29688;SDS011;16600;47.444;8.334;2023-04-06T17:52:38;6.68;;;5.75;;
29688;SDS011;16600;47.444;8.334;2023-04-06T17:55:06;6.32;;;5.43;;
29688;SDS011;16600;47.444;8.334;2023-04-06T17:57:33;7.72;;;5.82;;
29688;SDS011;16600;47.444;8.334;2023-04-06T18:02:25;8.50;;;6.05;;
29688;SDS011;16600;47.444;8.334;2023-04-06T18:04:53;9.00;;;6.25;;
29688;SDS011;16600;47.444;8.334;2023-04-06T18:07:23;9.98;;;5.82;;
29688;SDS011;16600;47.444;8.334;2023-04-06T18:09:52;7.97;;;5.93;;
29688;SDS011;16600;47.444;8.334;2023-04-06T18:12:18;14.30;;;6.38;;
29688;SDS011;16600;47.444;8.334;2023-04-06T18:14:45;8.23;;;5.70;;
29688;SDS011;16600;47.444;8.334;2023-04-06T18:17:11;8.27;;;5.32;;
29688;SDS011;16600;47.444;8.334;2023-04-06T18:19:37;12.85;;;6.25;;
29688;SDS011;16600;47.444;8.334;2023-04-06T18:22:03;7.38;;;6.10;;
29688;SDS011;16600;47.444;8.334;2023-04-06T18:24:29;8.63;;;5.75;;
29688;SDS011;16600;47.444;8.334;2023-04-06T18:26:56;9.18;;;6.90;;
29688;SDS011;16600;47.444;8.334;2023-04-06T18:29:22;10.15;;;6.72;;
29688;SDS011;16600;47.444;8.334;2023-04-06T18:34:16;6.85;;;6.18;;
29688;SDS011;16600;47.444;8.334;2023-04-06T18:36:42;7.47;;;6.68;;
29688;SDS011;16600;47.444;8.334;2023-04-06T18:39:09;8.85;;;6.28;;
29688;SDS011;16600;47.444;8.334;2023-04-06T18:41:37;8.85;;;7.03;;
29688;SDS011;16600;47.444;8.334;2023-04-06T18:44:04;7.30;;;5.90;;
29688;SDS011;16600;47.444;8.334;2023-04-06T18:46:30;7.70;;;6.28;;
29688;SDS011;16600;47.444;8.334;2023-04-06T18:48:56;6.35;;;5.30;;
29688;SDS011;16600;47.444;8.334;2023-04-06T18:51:22;10.95;;;5.40;;
29688;SDS011;16600;47.444;8.334;2023-04-06T18:53:56;7.85;;;6.53;;
29688;SDS011;16600;47.444;8.334;2023-04-06T18:56:22;6.35;;;5.18;;
29688;SDS011;16600;47.444;8.334;2023-04-06T18:58:48;6.95;;;5.18;;
29688;SDS011;16600;47.444;8.334;2023-04-06T19:01:25;6.00;;;5.38;;
29688;SDS011;16600;47.444;8.334;2023-04-06T19:03:52;12.35;;;6.20;;
29688;SDS011;16600;47.444;8.334;2023-04-06T19:06:18;9.70;;;6.38;;
29688;SDS011;16600;47.444;8.334;2023-04-06T19:08:44;7.85;;;5.68;;
29688;SDS011;16600;47.444;8.334;2023-04-06T19:11:10;5.80;;;4.93;;
29688;SDS011;16600;47.444;8.334;2023-04-06T19:13:37;10.52;;;6.13;;
29688;SDS011;16600;47.444;8.334;2023-04-06T19:16:09;6.95;;;5.20;;
29688;SDS011;16600;47.444;8.334;2023-04-06T19:18:36;8.48;;;5.15;;
29688;SDS011;16600;47.444;8.334;2023-04-06T19:21:09;8.20;;;4.95;;
29688;SDS011;16600;47.444;8.334;2023-04-06T19:23:38;10.20;;;5.43;;
29688;SDS011;16600;47.444;8.334;2023-04-06T19:28:30;5.85;;;4.28;;
29688;SDS011;16600;47.444;8.334;2023-04-06T19:30:56;7.32;;;5.10;;
29688;SDS011;16600;47.444;8.334;2023-04-06T19:33:26;9.73;;;6.15;;
29688;SDS011;16600;47.444;8.334;2023-04-06T19:35:52;8.07;;;5.70;;
29688;SDS011;16600;47.444;8.334;2023-04-06T19:38:21;6.93;;;5.35;;
29688;SDS011;16600;47.444;8.334;2023-04-06T19:40:47;6.32;;;4.30;;
29688;SDS011;16600;47.444;8.334;2023-04-06T19:43:19;10.00;;;4.68;;
29688;SDS011;16600;47.444;8.334;2023-04-06T19:45:46;4.97;;;4.25;;
29688;SDS011;16600;47.444;8.334;2023-04-06T19:48:12;5.22;;;4.35;;
29688;SDS011;16600;47.444;8.334;2023-04-06T19:50:38;6.97;;;4.15;;
29688;SDS011;16600;47.444;8.334;2023-04-06T19:53:04;7.25;;;5.13;;
29688;SDS011;16600;47.444;8.334;2023-04-06T19:55:33;7.75;;;5.07;;
29688;SDS011;16600;47.444;8.334;2023-04-06T19:57:59;7.55;;;5.38;;
29688;SDS011;16600;47.444;8.334;2023-04-06T20:00:25;7.07;;;5.72;;
29688;SDS011;16600;47.444;8.334;2023-04-06T20:02:52;7.03;;;5.85;;
29688;SDS011;16600;47.444;8.334;2023-04-06T20:05:18;5.72;;;4.68;;
29688;SDS011;16600;47.444;8.334;2023-04-06T20:10:10;18.60;;;4.80;;
29688;SDS011;16600;47.444;8.334;2023-04-06T20:12:36;9.18;;;5.00;;
29688;SDS011;16600;47.444;8.334;2023-04-06T20:15:04;9.35;;;5.57;;
29688;SDS011;16600;47.444;8.334;2023-04-06T20:17:30;5.93;;;4.75;;
29688;SDS011;16600;47.444;8.334;2023-04-06T20:19:56;6.53;;;4.75;;
29688;SDS011;16600;47.444;8.334;2023-04-06T20:22:22;7.15;;;5.10;;
29688;SDS011;16600;47.444;8.334;2023-04-06T20:24:48;12.13;;;4.90;;
29688;SDS011;16600;47.444;8.334;2023-04-06T20:27:14;10.18;;;6.03;;
29688;SDS011;16600;47.444;8.334;2023-04-06T20:29:41;7.40;;;5.85;;
29688;SDS011;16600;47.444;8.334;2023-04-06T20:32:08;8.48;;;5.75;;
29688;SDS011;16600;47.444;8.334;2023-04-06T20:34:35;7.97;;;5.20;;
29688;SDS011;16600;47.444;8.334;2023-04-06T20:37:01;7.25;;;5.63;;
29688;SDS011;16600;47.444;8.334;2023-04-06T20:39:28;6.28;;;4.40;;
29688;SDS011;16600;47.444;8.334;2023-04-06T20:41:55;6.40;;;4.88;;
29688;SDS011;16600;47.444;8.334;2023-04-06T20:44:22;12.65;;;5.00;;
29688;SDS011;16600;47.444;8.334;2023-04-06T20:46:50;7.03;;;5.38;;
29688;SDS011;16600;47.444;8.334;2023-04-06T20:49:16;6.65;;;4.97;;
29688;SDS011;16600;47.444;8.334;2023-04-06T20:51:43;5.53;;;4.53;;
29688;SDS011;16600;47.444;8.334;2023-04-06T20:54:10;8.05;;;5.25;;
29688;SDS011;16600;47.444;8.334;2023-04-06T20:56:39;6.85;;;5.03;;